Time;durP1;ratioP1;P1;durP2;ratioP2;P2;SDS_P1;SDS_P2;PMS_P1;PMS_P2;Temp;Humidity;BMP_temperature;BMP_pressure;BME280_temperature;BME280_humidity;BME280_pressure;Samples;Min_cycle;Max_cycle;Signal;HPM_P1;HPM_P2
2022/06/12 00:04:20;;;;;;;15.18;3.10;;;;;;;;;;4271029;33;20041;-77
2022/06/12 00:32:01;;;;;;;15.18;3.25;;;;;;;;;;4242888;33;20077;-78
2022/06/12 00:40:41;;;;;;;11.63;4.00;;;;;;;;;;4264051;33;20118;-75
2022/06/12 00:43:06;;;;;;;16.08;3.42;;;;;;;;;;4289908;33;20024;-75
2022/06/12 00:45:52;;;;;;;18.92;3.58;;;;;;;;;;4330913;33;20067;-75
2022/06/12 00:48:22;;;;;;;14.07;3.20;;;;;;;;;;4318903;33;20098;-75
2022/06/12 00:51:06;;;;;;;17.50;3.80;;;;;;;;;;4331351;33;20081;-75
2022/06/12 00:53:45;;;;;;;15.45;3.17;;;;;;;;;;4329203;33;20103;-74
2022/06/12 00:56:18;;;;;;;13.65;3.90;;;;;;;;;;4331862;33;20024;-75
2022/06/12 00:58:46;;;;;;;16.12;3.65;;;;;;;;;;4331264;33;20031;-76
2022/06/12 01:01:18;;;;;;;13.57;3.30;;;;;;;;;;4332277;33;20466;-76
2022/06/12 01:06:33;;;;;;;19.10;3.50;;;;;;;;;;4333466;33;20100;-76
2022/06/12 01:08:58;;;;;;;17.37;4.05;;;;;;;;;;4333440;33;20107;-75
2022/06/12 01:11:23;;;;;;;15.02;3.90;;;;;;;;;;4334883;33;20024;-76
2022/06/12 01:13:49;;;;;;;17.02;3.67;;;;;;;;;;4321487;33;20409;-76
2022/06/12 01:16:14;;;;;;;;;;;;;;;;;;4334506;33;20023;-76
2022/06/12 01:18:43;;;;;;;15.02;4.47;;;;;;;;;;4333216;33;19990;-76
2022/06/12 01:21:27;;;;;;;17.62;3.58;;;;;;;;;;4332642;33;20454;-77
2022/06/12 01:23:58;;;;;;;18.60;4.65;;;;;;;;;;4332856;33;20062;-75
2022/06/12 01:26:42;;;;;;;20.23;4.75;;;;;;;;;;4320007;33;20058;-74
2022/06/12 01:29:13;;;;;;;19.17;3.92;;;;;;;;;;4334093;33;20071;-75
2022/06/12 01:31:51;;;;;;;15.25;3.75;;;;;;;;;;4320450;33;20028;-75
2022/06/12 01:34:34;;;;;;;15.45;4.72;;;;;;;;;;4334058;33;20316;-75
2022/06/12 01:37:11;;;;;;;24.08;6.30;;;;;;;;;;4334001;33;20063;-74
2022/06/12 01:39:49;;;;;;;14.57;4.05;;;;;;;;;;4336734;33;20035;-75
2022/06/12 01:42:30;;;;;;;15.50;3.67;;;;;;;;;;4364077;32;20027;-75
2022/06/12 01:45:01;;;;;;;18.02;4.75;;;;;;;;;;4362470;33;20133;-75
2022/06/12 01:47:41;;;;;;;16.05;4.05;;;;;;;;;;4362654;32;20045;-75
2022/06/12 01:50:29;;;;;;;19.62;4.15;;;;;;;;;;4363766;32;20027;-76
2022/06/12 01:53:15;;;;;;;20.02;4.30;;;;;;;;;;4350327;32;20042;-75
2022/06/12 01:55:44;;;;;;;17.85;3.67;;;;;;;;;;4364067;32;20040;-75
2022/06/12 01:58:26;;;;;;;17.90;4.78;;;;;;;;;;4363659;32;20122;-75
2022/06/12 02:01:12;;;;;;;15.68;4.20;;;;;;;;;;4350541;32;20081;-75
2022/06/12 02:03:43;;;;;;;22.15;5.07;;;;;;;;;;4353342;33;20061;-74
2022/06/12 02:06:11;;;;;;;18.05;5.57;;;;;;;;;;4363685;32;20063;-76
2022/06/12 02:08:39;;;;;;;22.23;4.05;;;;;;;;;;4348429;33;20031;-76
2022/06/12 02:13:58;;;;;;;17.83;4.65;;;;;;;;;;4338641;33;20045;-76
2022/06/12 02:16:26;;;;;;;20.95;5.07;;;;;;;;;;4362809;32;20150;-76
2022/06/12 02:18:53;;;;;;;25.62;5.05;;;;;;;;;;4363135;32;20027;-76
2022/06/12 02:21:25;;;;;;;17.73;5.07;;;;;;;;;;4349130;33;20052;-76
2022/06/12 02:24:11;;;;;;;19.20;4.57;;;;;;;;;;4363028;32;20341;-75
2022/06/12 02:26:39;;;;;;;17.95;5.00;;;;;;;;;;4363013;32;20023;-76
2022/06/12 02:29:06;;;;;;;19.50;5.00;;;;;;;;;;4361783;32;20043;-76
2022/06/12 02:31:36;;;;;;;24.63;6.32;;;;;;;;;;4364798;32;20027;-75
2022/06/12 02:34:04;;;;;;;23.75;6.60;;;;;;;;;;4363414;32;20027;-75
2022/06/12 02:36:33;;;;;;;25.35;6.00;;;;;;;;;;4363631;32;20124;-75
2022/06/12 02:39:07;;;;;;;22.55;6.15;;;;;;;;;;4362445;32;20040;-75
2022/06/12 02:41:40;;;;;;;16.83;4.95;;;;;;;;;;4363307;32;20361;-75
2022/06/12 02:44:09;;;;;;;27.08;6.20;;;;;;;;;;4347996;33;20442;-76
2022/06/12 02:46:38;;;;;;;26.30;6.15;;;;;;;;;;4361920;32;20023;-74
2022/06/12 02:49:03;;;;;;;23.87;5.85;;;;;;;;;;4363530;32;20061;-76
2022/06/12 02:51:35;;;;;;;25.92;6.72;;;;;;;;;;4362511;32;20058;-76
2022/06/12 02:54:12;;;;;;;21.73;6.43;;;;;;;;;;4362649;32;20085;-76
2022/06/12 02:56:49;;;;;;;26.50;6.65;;;;;;;;;;4363178;32;20027;-76
2022/06/12 02:59:46;;;;;;;30.02;7.68;;;;;;;;;;4362826;32;20035;-75
2022/06/12 03:02:11;;;;;;;;;;;;;;;;;;4352726;33;20050;-75
2022/06/12 03:04:40;;;;;;;32.10;7.55;;;;;;;;;;4362289;32;19943;-76
2022/06/12 03:07:06;;;;;;;19.50;6.82;;;;;;;;;;4362499;32;20036;-75
2022/06/12 03:09:31;;;;;;;28.87;7.43;;;;;;;;;;4362571;32;20026;-75
2022/06/12 03:11:56;;;;;;;;;;;;;;;;;;4361433;32;20402;-75
2022/06/12 03:14:22;;;;;;;27.08;7.10;;;;;;;;;;4361235;32;20338;-75
2022/06/12 03:16:48;;;;;;;24.42;8.60;;;;;;;;;;4362861;32;20053;-75
2022/06/12 03:19:15;;;;;;;20.95;6.43;;;;;;;;;;4361611;32;20023;-75
2022/06/12 03:21:53;;;;;;;26.98;8.27;;;;;;;;;;4360906;32;20087;-75
2022/06/12 03:24:36;;;;;;;28.98;8.23;;;;;;;;;;4362215;32;20028;-75
2022/06/12 03:27:10;;;;;;;25.10;6.72;;;;;;;;;;4360833;32;20077;-75
2022/06/12 03:29:43;;;;;;;23.87;6.37;;;;;;;;;;4348753;32;20073;-75
2022/06/12 03:32:26;;;;;;;27.75;7.57;;;;;;;;;;4362071;32;20023;-76
2022/06/12 03:34:52;;;;;;;28.42;6.97;;;;;;;;;;4362613;32;20040;-76
2022/06/12 03:37:17;;;;;;;28.92;7.25;;;;;;;;;;4347021;33;20042;-75
2022/06/12 03:39:56;;;;;;;27.40;7.68;;;;;;;;;;4360380;32;20448;-76
2022/06/12 03:42:43;;;;;;;19.40;6.45;;;;;;;;;;4361625;32;20178;-75
2022/06/12 03:45:11;;;;;;;24.90;7.55;;;;;;;;;;4347215;33;20032;-75
2022/06/12 03:47:43;;;;;;;31.90;8.52;;;;;;;;;;4360994;32;20065;-76
2022/06/12 03:50:16;;;;;;;41.85;10.00;;;;;;;;;;4360977;32;20027;-75
2022/06/12 03:52:44;;;;;;;31.33;8.88;;;;;;;;;;4362449;32;20034;-75
2022/06/12 03:58:17;;;;;;;20.92;7.43;;;;;;;;;;4361886;32;20487;-76
2022/06/12 04:00:43;;;;;;;28.58;8.50;;;;;;;;;;4361385;32;20446;-76
2022/06/12 04:03:29;;;;;;;33.58;7.07;;;;;;;;;;4361638;32;20072;-74
2022/06/12 04:05:59;;;;;;;25.23;7.85;;;;;;;;;;4360495;33;20032;-75
2022/06/12 04:08:32;;;;;;;24.00;7.05;;;;;;;;;;4362252;32;20047;-75
2022/06/12 04:10:58;;;;;;;23.40;6.72;;;;;;;;;;4360355;32;20491;-75
2022/06/12 04:13:23;;;;;;;18.85;5.82;;;;;;;;;;4360780;33;20046;-75
2022/06/12 04:15:48;;;;;;;;;;;;;;;;;;4361315;32;20386;-75
2022/06/12 04:18:14;;;;;;;29.58;7.40;;;;;;;;;;4347610;33;19952;-75
2022/06/12 04:20:39;;;;;;;23.75;7.55;;;;;;;;;;4360611;33;20522;-76
2022/06/12 04:23:07;;;;;;;29.30;7.72;;;;;;;;;;4362057;32;20062;-76
2022/06/12 04:25:32;;;;;;;26.10;8.30;;;;;;;;;;4360381;33;20102;-76
2022/06/12 04:27:58;;;;;;;17.90;7.40;;;;;;;;;;4361490;32;20049;-76
2022/06/12 04:30:23;;;;;;;;;;;;;;;;;;4361865;32;20114;-76
2022/06/12 04:32:48;;;;;;;23.42;8.32;;;;;;;;;;4361698;33;19958;-75
2022/06/12 04:35:14;;;;;;;30.42;7.18;;;;;;;;;;4360825;32;20028;-75
2022/06/12 04:37:40;;;;;;;31.80;8.85;;;;;;;;;;4360588;32;20386;-75
2022/06/12 04:40:06;;;;;;;27.33;6.85;;;;;;;;;;4362311;32;20058;-76
2022/06/12 04:42:31;;;;;;;;;;;;;;;;;;4365202;32;20057;-76
2022/06/12 04:45:00;;;;;;;35.57;9.87;;;;;;;;;;4364601;32;19994;-75
2022/06/12 04:47:26;;;;;;;24.95;6.75;;;;;;;;;;4363484;32;20027;-76
2022/06/12 04:49:52;;;;;;;22.55;5.93;;;;;;;;;;4363582;32;20333;-76
2022/06/12 04:52:18;;;;;;;34.53;6.57;;;;;;;;;;4364294;32;20050;-76
2022/06/12 04:54:45;;;;;;;29.95;10.02;;;;;;;;;;4363065;32;20323;-75
2022/06/12 04:57:11;;;;;;;30.45;6.90;;;;;;;;;;4364733;32;20069;-75
2022/06/12 04:59:36;;;;;;;21.17;5.80;;;;;;;;;;4349050;33;20016;-75
2022/06/12 05:02:02;;;;;;;23.65;6.15;;;;;;;;;;4363139;32;20057;-75
2022/06/12 05:04:28;;;;;;;23.87;6.55;;;;;;;;;;4349842;33;20046;-75
2022/06/12 05:06:53;;;;;;;15.57;5.12;;;;;;;;;;4363033;32;20057;-76
2022/06/12 05:09:20;;;;;;;21.52;6.55;;;;;;;;;;4364056;32;20081;-75
2022/06/12 05:11:45;;;;;;;28.58;6.87;;;;;;;;;;4364128;32;20023;-74
2022/06/12 05:14:10;;;;;;;20.33;4.55;;;;;;;;;;4362886;32;20413;-75
2022/06/12 05:16:44;;;;;;;18.23;4.47;;;;;;;;;;4363410;32;20019;-75
2022/06/12 05:19:11;;;;;;;20.30;4.30;;;;;;;;;;4348781;33;20079;-75
2022/06/12 05:21:36;;;;;;;22.15;5.05;;;;;;;;;;4363840;32;20057;-75
2022/06/12 05:24:02;;;;;;;23.58;5.40;;;;;;;;;;4362497;32;20024;-75
2022/06/12 05:26:28;;;;;;;14.13;4.03;;;;;;;;;;4364147;32;20414;-75
2022/06/12 05:28:53;;;;;;;19.80;5.15;;;;;;;;;;4350205;32;20450;-75
2022/06/12 05:31:19;;;;;;;27.70;5.12;;;;;;;;;;4362892;32;20059;-76
2022/06/12 05:33:45;;;;;;;16.02;5.00;;;;;;;;;;4364228;32;20019;-75
2022/06/12 05:36:11;;;;;;;20.58;4.87;;;;;;;;;;4364126;32;20070;-75
2022/06/12 05:38:36;;;;;;;23.35;4.85;;;;;;;;;;4349383;33;20074;-75
2022/06/12 05:41:01;;;;;;;21.48;4.65;;;;;;;;;;4363977;32;20031;-76
2022/06/12 05:43:26;;;;;;;16.58;5.10;;;;;;;;;;4362203;33;20417;-76
2022/06/12 05:45:51;;;;;;;14.40;4.30;;;;;;;;;;4362481;33;20134;-76
2022/06/12 05:48:18;;;;;;;14.30;4.20;;;;;;;;;;4363996;32;20031;-76
2022/06/12 05:51:02;;;;;;;20.67;4.85;;;;;;;;;;4363161;32;20031;-75
2022/06/12 05:53:28;;;;;;;24.27;5.47;;;;;;;;;;4348569;33;20023;-75
2022/06/12 05:55:54;;;;;;;18.65;4.28;;;;;;;;;;4362127;32;20357;-75
2022/06/12 05:58:20;;;;;;;13.25;3.90;;;;;;;;;;4362139;32;20487;-76
2022/06/12 06:00:46;;;;;;;11.68;4.10;;;;;;;;;;4363729;32;20032;-75
2022/06/12 06:03:12;;;;;;;19.10;3.70;;;;;;;;;;4361474;32;20451;-75
2022/06/12 06:05:38;;;;;;;16.12;4.25;;;;;;;;;;4363503;32;20031;-76
2022/06/12 06:08:04;;;;;;;12.98;3.85;;;;;;;;;;4363448;32;20035;-75
2022/06/12 06:10:29;;;;;;;16.73;4.53;;;;;;;;;;4348368;33;20078;-76
2022/06/12 06:12:55;;;;;;;11.45;3.90;;;;;;;;;;4361550;32;20031;-75
2022/06/12 06:15:20;;;;;;;17.70;3.97;;;;;;;;;;4363644;32;20035;-76
2022/06/12 06:17:45;;;;;;;13.60;3.50;;;;;;;;;;4362361;32;20114;-75
2022/06/12 06:20:12;;;;;;;15.80;4.55;;;;;;;;;;4361844;32;20086;-75
2022/06/12 06:22:37;;;;;;;12.65;4.15;;;;;;;;;;4363143;32;20024;-75
2022/06/12 06:25:03;;;;;;;11.68;3.28;;;;;;;;;;4363493;32;20027;-75
2022/06/12 06:27:28;;;;;;;12.25;3.75;;;;;;;;;;4363493;32;20414;-76
2022/06/12 06:29:53;;;;;;;9.77;3.55;;;;;;;;;;4362736;32;20027;-76
2022/06/12 06:32:19;;;;;;;16.85;3.67;;;;;;;;;;4360161;32;20051;-76
2022/06/12 06:34:44;;;;;;;12.77;3.30;;;;;;;;;;4362523;32;20076;-75
2022/06/12 06:37:10;;;;;;;12.17;3.63;;;;;;;;;;4361005;32;20031;-75
2022/06/12 06:39:37;;;;;;;14.27;3.65;;;;;;;;;;4362497;32;20131;-76
2022/06/12 06:42:03;;;;;;;14.65;3.60;;;;;;;;;;4362983;32;20051;-75
2022/06/12 06:47:12;;;;;;;10.98;3.80;;;;;;;;;;4362609;32;20436;-75
2022/06/12 06:49:37;;;;;;;7.90;3.25;;;;;;;;;;4359803;32;20039;-75
2022/06/12 06:52:03;;;;;;;13.15;3.37;;;;;;;;;;4361314;33;20031;-76
2022/06/12 06:54:29;;;;;;;11.98;3.40;;;;;;;;;;4361517;32;20081;-76
2022/06/12 06:56:54;;;;;;;9.98;3.08;;;;;;;;;;4362856;32;20070;-75
2022/06/12 06:59:19;;;;;;;14.77;3.35;;;;;;;;;;4349027;32;20093;-75
2022/06/12 07:01:44;;;;;;;19.65;4.40;;;;;;;;;;4361813;32;20027;-75
2022/06/12 07:04:09;;;;;;;9.15;3.28;;;;;;;;;;4362460;32;20026;-75
2022/06/12 07:06:35;;;;;;;7.57;3.45;;;;;;;;;;4362696;32;20054;-75
2022/06/12 07:09:00;;;;;;;10.27;3.05;;;;;;;;;;4349157;32;20377;-75
2022/06/12 07:11:26;;;;;;;14.35;3.65;;;;;;;;;;4363250;32;20103;-76
2022/06/12 07:13:53;;;;;;;10.05;2.95;;;;;;;;;;4362691;32;20061;-75
2022/06/12 07:16:18;;;;;;;18.60;3.72;;;;;;;;;;4361080;32;20437;-76
2022/06/12 07:18:44;;;;;;;12.40;3.08;;;;;;;;;;4361210;33;20023;-74
2022/06/12 07:21:10;;;;;;;12.50;3.72;;;;;;;;;;4362587;32;20092;-75
2022/06/12 07:23:35;;;;;;;13.13;3.75;;;;;;;;;;4362406;32;20027;-74
2022/06/12 07:26:04;;;;;;;10.95;3.10;;;;;;;;;;4361436;32;20377;-74
2022/06/12 07:28:30;;;;;;;13.20;3.55;;;;;;;;;;4362960;32;20158;-74
2022/06/12 07:30:55;;;;;;;8.82;2.85;;;;;;;;;;4361958;32;20346;-75
2022/06/12 07:33:20;;;;;;;14.95;3.40;;;;;;;;;;4360595;32;20031;-75
2022/06/12 07:35:46;;;;;;;15.52;3.42;;;;;;;;;;4362416;32;20023;-74
2022/06/12 07:38:12;;;;;;;15.50;2.75;;;;;;;;;;4360247;32;20027;-74
2022/06/12 07:40:40;;;;;;;9.90;3.42;;;;;;;;;;4360219;32;20381;-75
2022/06/12 07:43:06;;;;;;;10.93;3.35;;;;;;;;;;4360120;32;20168;-73
2022/06/12 07:45:31;;;;;;;9.45;2.92;;;;;;;;;;4362344;32;20023;-74
2022/06/12 07:47:57;;;;;;;10.85;3.03;;;;;;;;;;4361671;32;20145;-75
2022/06/12 07:50:22;;;;;;;7.53;2.40;;;;;;;;;;4362118;32;20423;-75
2022/06/12 07:52:47;;;;;;;11.55;3.25;;;;;;;;;;4361480;32;20055;-75
2022/06/12 07:55:15;;;;;;;10.27;3.28;;;;;;;;;;4361913;32;20119;-74
2022/06/12 07:57:40;;;;;;;9.75;3.35;;;;;;;;;;4362289;32;20125;-75
2022/06/12 08:00:06;;;;;;;13.55;3.47;;;;;;;;;;4361080;32;20031;-75
2022/06/12 08:02:31;;;;;;;12.50;3.10;;;;;;;;;;4361456;32;20050;-74
2022/06/12 08:04:57;;;;;;;9.25;3.47;;;;;;;;;;4361511;32;20081;-75
2022/06/12 08:07:22;;;;;;;11.65;2.67;;;;;;;;;;4359119;32;20050;-74
2022/06/12 08:09:48;;;;;;;8.50;3.17;;;;;;;;;;4359889;33;20154;-75
2022/06/12 08:12:13;;;;;;;6.30;2.60;;;;;;;;;;4361960;32;20058;-75
2022/06/12 08:14:38;;;;;;;14.38;3.35;;;;;;;;;;4361620;32;20027;-75
2022/06/12 08:17:03;;;;;;;16.30;3.87;;;;;;;;;;4361731;33;20066;-75
2022/06/12 08:22:12;;;;;;;12.37;2.70;;;;;;;;;;4361380;33;20069;-75
2022/06/12 08:24:38;;;;;;;10.90;2.83;;;;;;;;;;4346617;33;20035;-75
2022/06/12 08:27:04;;;;;;;14.18;3.65;;;;;;;;;;4360252;33;20024;-74
2022/06/12 08:29:29;;;;;;;9.02;3.22;;;;;;;;;;4346091;33;20077;-75
2022/06/12 08:31:57;;;;;;;11.20;3.03;;;;;;;;;;4361122;32;20042;-75
2022/06/12 08:34:44;;;;;;;10.60;3.00;;;;;;;;;;4360689;33;20032;-75
2022/06/12 08:37:11;;;;;;;17.83;3.75;;;;;;;;;;4361760;33;20031;-75
2022/06/12 08:39:36;;;;;;;9.88;3.12;;;;;;;;;;4360612;32;20479;-74
2022/06/12 08:42:22;;;;;;;10.25;2.92;;;;;;;;;;4362248;32;20023;-74
2022/06/12 08:44:51;;;;;;;11.40;2.78;;;;;;;;;;4359935;33;20027;-74
2022/06/12 08:47:18;;;;;;;7.28;2.70;;;;;;;;;;4361142;33;20057;-75
2022/06/12 08:49:48;;;;;;;9.00;3.05;;;;;;;;;;4361494;33;20303;-75
2022/06/12 08:52:31;;;;;;;10.93;3.12;;;;;;;;;;4361281;33;20032;-75
2022/06/12 08:55:09;;;;;;;8.10;2.75;;;;;;;;;;4361201;33;20031;-75
2022/06/12 08:57:39;;;;;;;10.95;3.00;;;;;;;;;;4361713;33;20049;-75
2022/06/12 09:00:08;;;;;;;7.47;2.50;;;;;;;;;;4346338;33;20069;-74
2022/06/12 09:02:36;;;;;;;10.82;2.80;;;;;;;;;;4360847;33;20054;-75
2022/06/12 09:05:03;;;;;;;11.50;2.92;;;;;;;;;;4361270;33;20036;-75
2022/06/12 09:07:35;;;;;;;9.77;3.60;;;;;;;;;;4359967;32;20455;-75
2022/06/12 09:10:06;;;;;;;11.65;3.15;;;;;;;;;;4359498;33;20117;-75
2022/06/12 09:12:42;;;;;;;7.95;2.83;;;;;;;;;;4347925;33;20126;-74
2022/06/12 09:15:07;;;;;;;;;;;;;;;;;;4360101;32;20065;-74
2022/06/12 09:17:33;;;;;;;6.37;2.55;;;;;;;;;;4361432;33;20277;-74
2022/06/12 09:20:17;;;;;;;10.10;2.95;;;;;;;;;;4361088;33;20114;-75
2022/06/12 09:22:45;;;;;;;14.18;2.87;;;;;;;;;;4346041;33;20174;-75
2022/06/12 09:25:26;;;;;;;18.05;3.80;;;;;;;;;;4362181;32;20062;-74
2022/06/12 09:28:17;;;;;;;8.25;2.83;;;;;;;;;;4362666;32;20050;-74
2022/06/12 09:30:58;;;;;;;8.68;3.75;;;;;;;;;;4363796;32;20039;-74
2022/06/12 09:33:29;;;;;;;10.18;3.20;;;;;;;;;;4350249;32;20058;-74
2022/06/12 09:35:58;;;;;;;9.90;2.40;;;;;;;;;;4362948;32;20023;-75
2022/06/12 09:38:43;;;;;;;11.38;3.35;;;;;;;;;;4363607;32;20080;-74
2022/06/12 09:41:20;;;;;;;8.55;2.83;;;;;;;;;;4362749;32;20028;-73
2022/06/12 09:43:58;;;;;;;6.50;2.28;;;;;;;;;;4362241;32;20023;-74
2022/06/12 09:46:29;;;;;;;9.70;3.03;;;;;;;;;;4350604;32;20050;-75
2022/06/12 09:48:57;;;;;;;7.97;2.35;;;;;;;;;;4348466;33;20062;-76
2022/06/12 09:51:26;;;;;;;6.45;2.60;;;;;;;;;;4363207;32;20425;-74
2022/06/12 09:53:57;;;;;;;8.43;2.58;;;;;;;;;;4363702;32;20031;-76
2022/06/12 09:56:33;;;;;;;9.55;3.08;;;;;;;;;;4361975;32;20046;-75
2022/06/12 09:59:05;;;;;;;5.65;2.20;;;;;;;;;;4362006;32;20027;-74
2022/06/12 10:01:33;;;;;;;6.55;2.45;;;;;;;;;;4347857;33;20481;-74
2022/06/12 10:04:21;;;;;;;8.52;1.80;;;;;;;;;;4347843;33;20065;-75
2022/06/12 10:06:49;;;;;;;8.60;2.70;;;;;;;;;;4361170;32;20031;-75
2022/06/12 10:09:23;;;;;;;9.57;2.65;;;;;;;;;;4360391;32;20420;-74
2022/06/12 10:11:51;;;;;;;8.70;3.00;;;;;;;;;;4363030;32;20039;-74
2022/06/12 10:14:26;;;;;;;7.75;3.00;;;;;;;;;;4363094;32;20057;-74
2022/06/12 10:16:51;;;;;;;10.53;3.13;;;;;;;;;;4362364;32;20418;-75
2022/06/12 10:19:17;;;;;;;8.73;2.83;;;;;;;;;;4363138;32;20150;-74
2022/06/12 10:21:44;;;;;;;8.60;2.85;;;;;;;;;;4362771;32;20158;-74
2022/06/12 10:24:10;;;;;;;11.55;3.20;;;;;;;;;;4361528;32;20063;-74
2022/06/12 10:26:35;;;;;;;6.50;2.60;;;;;;;;;;4361320;32;20352;-74
2022/06/12 10:29:07;;;;;;;8.27;2.45;;;;;;;;;;4361076;32;20350;-75
2022/06/12 10:31:45;;;;;;;8.40;2.83;;;;;;;;;;4362549;32;20027;-74
2022/06/12 10:34:14;;;;;;;7.57;2.28;;;;;;;;;;4347875;33;20189;-74
2022/06/12 10:36:40;;;;;;;8.85;2.50;;;;;;;;;;4360405;32;20385;-74
2022/06/12 10:39:08;;;;;;;5.22;2.20;;;;;;;;;;4361604;32;20069;-75
2022/06/12 10:41:41;;;;;;;11.85;2.55;;;;;;;;;;4362452;32;20066;-75
2022/06/12 10:44:14;;;;;;;10.15;2.70;;;;;;;;;;4363598;32;20110;-74
2022/06/12 10:46:39;;;;;;;9.82;3.10;;;;;;;;;;4362846;32;20015;-75
2022/06/12 10:49:14;;;;;;;8.30;2.27;;;;;;;;;;4362671;32;20074;-75
2022/06/12 10:51:40;;;;;;;8.82;2.47;;;;;;;;;;4361727;32;20123;-74
2022/06/12 10:54:16;;;;;;;9.45;2.37;;;;;;;;;;4360522;32;20027;-75
2022/06/12 10:57:02;;;;;;;8.50;2.17;;;;;;;;;;4348888;32;20098;-75
2022/06/12 10:59:33;;;;;;;6.85;2.17;;;;;;;;;;4361618;32;20046;-75
2022/06/12 11:01:58;;;;;;;7.65;1.95;;;;;;;;;;4362175;32;20031;-74
2022/06/12 11:04:23;;;;;;;6.57;1.75;;;;;;;;;;4361575;32;20303;-75
2022/06/12 11:06:48;;;;;;;9.73;2.53;;;;;;;;;;4348677;32;20031;-75
2022/06/12 11:09:19;;;;;;;4.80;1.40;;;;;;;;;;4362505;32;20073;-75
2022/06/12 11:11:48;;;;;;;8.45;2.00;;;;;;;;;;4361832;32;20023;-75
2022/06/12 11:14:23;;;;;;;5.93;2.17;;;;;;;;;;4360640;32;20109;-74
2022/06/12 11:17:01;;;;;;;7.75;1.92;;;;;;;;;;4360493;32;20376;-73
2022/06/12 11:19:26;;;;;;;5.32;1.65;;;;;;;;;;4360306;32;20035;-73
2022/06/12 11:22:10;;;;;;;5.72;1.83;;;;;;;;;;4361708;32;20326;-76
2022/06/12 11:24:38;;;;;;;7.35;1.70;;;;;;;;;;4361926;32;20039;-74
2022/06/12 11:27:06;;;;;;;7.18;2.12;;;;;;;;;;4361925;32;20077;-74
2022/06/12 11:29:50;;;;;;;4.75;1.80;;;;;;;;;;4361309;32;20035;-74
2022/06/12 11:32:34;;;;;;;7.85;1.90;;;;;;;;;;4361473;32;20065;-75
2022/06/12 11:35:18;;;;;;;6.10;2.10;;;;;;;;;;4359986;32;20026;-74
2022/06/12 11:37:46;;;;;;;5.20;2.20;;;;;;;;;;4361892;32;20050;-74
2022/06/12 11:40:14;;;;;;;5.82;1.95;;;;;;;;;;4360202;32;20343;-76
2022/06/12 11:42:45;;;;;;;5.50;2.15;;;;;;;;;;4360978;32;20050;-74
2022/06/12 11:45:18;;;;;;;5.30;1.85;;;;;;;;;;4346847;32;20618;-77
2022/06/12 11:48:02;;;;;;;5.03;1.80;;;;;;;;;;4360290;32;20435;-74
2022/06/12 11:50:30;;;;;;;7.28;2.28;;;;;;;;;;4361293;32;20032;-74
2022/06/12 11:52:58;;;;;;;6.47;2.20;;;;;;;;;;4346369;33;20039;-74
2022/06/12 11:55:28;;;;;;;5.57;1.87;;;;;;;;;;4360310;32;20023;-74
2022/06/12 11:58:00;;;;;;;7.50;2.17;;;;;;;;;;4361604;32;20016;-74
2022/06/12 12:00:32;;;;;;;4.53;1.75;;;;;;;;;;4361036;32;20035;-75
2022/06/12 12:03:20;;;;;;;5.60;1.70;;;;;;;;;;4361110;32;20023;-75
2022/06/12 12:05:56;;;;;;;4.15;1.52;;;;;;;;;;4359253;32;20035;-74
2022/06/12 12:08:29;;;;;;;5.45;2.05;;;;;;;;;;4362310;32;20053;-74
2022/06/12 12:11:06;;;;;;;5.68;1.73;;;;;;;;;;4361200;32;20047;-75
2022/06/12 12:13:41;;;;;;;4.28;1.70;;;;;;;;;;4360697;32;20448;-75
2022/06/12 12:16:25;;;;;;;3.42;1.00;;;;;;;;;;4361574;32;20053;-74
2022/06/12 12:18:53;;;;;;;2.65;1.10;;;;;;;;;;4360689;32;20063;-74
2022/06/12 12:21:39;;;;;;;2.78;1.30;;;;;;;;;;4359678;33;20036;-75
2022/06/12 12:24:05;;;;;;;3.12;1.27;;;;;;;;;;4361249;33;20027;-74
2022/06/12 12:26:33;;;;;;;4.47;1.52;;;;;;;;;;4345775;33;20089;-75
2022/06/12 12:29:04;;;;;;;4.00;1.10;;;;;;;;;;4361933;32;20047;-74
2022/06/12 12:31:29;;;;;;;3.12;1.33;;;;;;;;;;4360919;32;20062;-74
2022/06/12 12:33:55;;;;;;;7.12;1.37;;;;;;;;;;4361388;33;20036;-75
2022/06/12 12:41:55;;;;;;;7.53;1.75;;;;;;;;;;4360469;32;20086;-74
2022/06/12 12:44:32;;;;;;;7.90;2.25;;;;;;;;;;4347965;33;20071;-74
2022/06/12 12:46:58;;;;;;;5.75;1.75;;;;;;;;;;4360759;33;20051;-74
2022/06/12 12:49:26;;;;;;;3.95;1.60;;;;;;;;;;4361121;33;20035;-74
2022/06/12 12:52:03;;;;;;;7.00;4.70;;;;;;;;;;4360607;32;20071;-73
2022/06/12 12:54:28;;;;;;;5.55;1.90;;;;;;;;;;4361221;33;20234;-75
2022/06/12 12:56:59;;;;;;;3.53;1.52;;;;;;;;;;4360122;32;20024;-74
2022/06/12 12:59:34;;;;;;;5.20;1.55;;;;;;;;;;4361589;32;20027;-73
2022/06/12 13:02:04;;;;;;;5.53;1.37;;;;;;;;;;4364505;32;20031;-73
2022/06/12 13:04:34;;;;;;;4.22;1.70;;;;;;;;;;4362322;32;20058;-74
2022/06/12 13:07:11;;;;;;;4.78;1.70;;;;;;;;;;4363608;32;20051;-74
2022/06/12 13:09:45;;;;;;;4.82;1.67;;;;;;;;;;4363814;32;20097;-74
2022/06/12 13:12:10;;;;;;;3.25;1.40;;;;;;;;;;4350844;32;20120;-74
2022/06/12 13:14:58;;;;;;;5.37;2.28;;;;;;;;;;4363292;32;20380;-74
2022/06/12 13:17:32;;;;;;;4.70;1.52;;;;;;;;;;4363928;32;20061;-73
2022/06/12 13:20:16;;;;;;;4.65;2.17;;;;;;;;;;4364285;32;20027;-74
2022/06/12 13:22:56;;;;;;;3.60;1.58;;;;;;;;;;4364964;32;20032;-73
2022/06/12 13:25:24;;;;;;;7.68;2.15;;;;;;;;;;4363361;32;20111;-74
2022/06/12 13:27:54;;;;;;;4.22;2.25;;;;;;;;;;4362178;32;20054;-74
2022/06/12 13:30:21;;;;;;;4.82;1.80;;;;;;;;;;4362950;32;20028;-75
2022/06/12 13:32:46;;;;;;;7.20;2.15;;;;;;;;;;4362987;32;20024;-74
2022/06/12 13:35:21;;;;;;;6.60;2.03;;;;;;;;;;4362341;33;20054;-75
2022/06/12 13:37:47;;;;;;;8.95;2.83;;;;;;;;;;4348142;33;20090;-74
2022/06/12 13:40:24;;;;;;;10.88;2.97;;;;;;;;;;4360816;32;20414;-74
2022/06/12 13:42:49;;;;;;;10.18;3.40;;;;;;;;;;4362013;32;20027;-73
2022/06/12 13:45:19;;;;;;;7.32;3.75;;;;;;;;;;4363822;32;20027;-73
2022/06/12 13:47:45;;;;;;;12.85;3.20;;;;;;;;;;4362916;32;20035;-73
2022/06/12 13:50:13;;;;;;;8.02;3.03;;;;;;;;;;4362384;32;20051;-73
2022/06/12 13:52:58;;;;;;;7.95;3.22;;;;;;;;;;4349623;32;20050;-73
2022/06/12 13:55:25;;;;;;;12.75;3.28;;;;;;;;;;4360177;33;20114;-74
2022/06/12 13:57:52;;;;;;;7.80;3.00;;;;;;;;;;4362681;32;20173;-74
2022/06/12 14:00:38;;;;;;;11.05;4.65;;;;;;;;;;4362755;32;20043;-73
2022/06/12 14:03:03;;;;;;;11.10;3.10;;;;;;;;;;4353210;33;20406;-75
2022/06/12 14:05:33;;;;;;;12.73;3.60;;;;;;;;;;4349374;32;20077;-74
2022/06/12 14:08:01;;;;;;;11.15;3.25;;;;;;;;;;4363572;32;20035;-74
2022/06/12 14:10:26;;;;;;;10.82;3.22;;;;;;;;;;4361787;32;20483;-75
2022/06/12 14:12:51;;;;;;;16.83;3.78;;;;;;;;;;4360524;32;20020;-75
2022/06/12 14:15:29;;;;;;;8.95;3.25;;;;;;;;;;4361861;32;20470;-74
2022/06/12 14:17:56;;;;;;;16.55;4.78;;;;;;;;;;4362396;32;20027;-73
2022/06/12 14:20:26;;;;;;;13.13;3.33;;;;;;;;;;4362848;32;20086;-73
2022/06/12 14:22:52;;;;;;;10.55;3.40;;;;;;;;;;4361564;32;20086;-74
2022/06/12 14:25:25;;;;;;;13.20;3.50;;;;;;;;;;4361446;32;20028;-74
2022/06/12 14:27:59;;;;;;;8.63;3.00;;;;;;;;;;4362979;32;20406;-73
2022/06/12 14:30:32;;;;;;;10.95;3.40;;;;;;;;;;4362024;32;20108;-75
2022/06/12 14:32:57;;;;;;;13.10;3.33;;;;;;;;;;4362293;32;20035;-74
2022/06/12 14:35:23;;;;;;;13.43;3.78;;;;;;;;;;4361352;32;20077;-74
2022/06/12 14:37:48;;;;;;;9.40;3.30;;;;;;;;;;4348414;33;20023;-74
2022/06/12 14:40:37;;;;;;;8.55;4.22;;;;;;;;;;4347763;33;20058;-73
2022/06/12 14:43:41;;;;;;;8.98;3.87;;;;;;;;;;4363256;32;20019;-72
2022/06/12 14:46:14;;;;;;;8.55;3.00;;;;;;;;;;4344110;33;20173;-73
2022/06/12 14:48:39;;;;;;;12.48;3.53;;;;;;;;;;4332138;33;20125;-74
2022/06/12 14:51:04;;;;;;;11.23;3.33;;;;;;;;;;4354241;32;20063;-74
2022/06/12 14:53:29;;;;;;;11.95;3.60;;;;;;;;;;4348555;32;20669;-73
2022/06/12 14:55:57;;;;;;;8.75;3.20;;;;;;;;;;4361443;32;20106;-73
2022/06/12 14:58:30;;;;;;;15.30;4.15;;;;;;;;;;4360334;32;20414;-74
2022/06/12 15:01:00;;;;;;;9.00;3.30;;;;;;;;;;4360429;32;20031;-74
2022/06/12 15:03:25;;;;;;;12.45;3.72;;;;;;;;;;4360278;32;20023;-74
2022/06/12 15:05:51;;;;;;;8.88;3.78;;;;;;;;;;4361401;32;20054;-73
2022/06/12 15:08:16;;;;;;;16.00;5.10;;;;;;;;;;4362254;32;20042;-74
2022/06/12 15:10:41;;;;;;;12.63;3.60;;;;;;;;;;4362114;32;20027;-74
2022/06/12 15:13:10;;;;;;;10.80;3.65;;;;;;;;;;4362509;32;20027;-74
2022/06/12 15:15:35;;;;;;;8.55;3.35;;;;;;;;;;4361305;32;20035;-74
2022/06/12 15:18:01;;;;;;;9.83;3.17;;;;;;;;;;4362158;32;20089;-73
2022/06/12 15:20:26;;;;;;;11.57;3.45;;;;;;;;;;4360773;32;20584;-74
2022/06/12 15:22:52;;;;;;;11.70;4.18;;;;;;;;;;4359520;32;20019;-74
2022/06/12 15:30:52;;;;;;;10.32;4.22;;;;;;;;;;4361020;32;20053;-73
2022/06/12 15:33:17;;;;;;;9.43;3.53;;;;;;;;;;4362295;32;20023;-73
2022/06/12 15:35:42;;;;;;;7.75;3.25;;;;;;;;;;4360810;32;20465;-74
2022/06/12 15:38:07;;;;;;;10.93;4.40;;;;;;;;;;4362160;32;20023;-74
2022/06/12 15:40:33;;;;;;;7.30;2.83;;;;;;;;;;4360157;32;20190;-74
2022/06/12 15:42:58;;;;;;;8.45;3.00;;;;;;;;;;4363262;32;20028;-73
2022/06/12 15:45:27;;;;;;;7.40;3.03;;;;;;;;;;4360923;32;20019;-73
2022/06/12 15:47:52;;;;;;;9.88;3.42;;;;;;;;;;4362209;32;20201;-74
2022/06/12 15:50:18;;;;;;;7.87;2.85;;;;;;;;;;4361015;32;20410;-74
2022/06/12 15:52:43;;;;;;;8.27;3.30;;;;;;;;;;4361565;32;20035;-74
2022/06/12 15:55:08;;;;;;;12.25;3.33;;;;;;;;;;4346535;33;20146;-73